createdAt,value
2019-04-30T00:00:42.430Z,7.07
2019-04-30T00:03:18.011Z,7.03
2019-04-30T00:05:44.992Z,7.01
2019-04-30T00:08:13.322Z,7.01
2019-04-30T00:10:41.809Z,6.99
2019-04-30T00:13:14.863Z,7.00
2019-04-30T00:15:40.651Z,6.99
2019-04-30T00:18:09.199Z,7.01
2019-04-30T00:20:38.768Z,7.01
2019-04-30T00:23:07.737Z,7.01
2019-04-30T00:25:36.486Z,7.00
2019-04-30T00:28:08.629Z,6.94
2019-04-30T00:30:39.366Z,6.89
2019-04-30T00:33:06.266Z,6.86
2019-04-30T00:35:35.610Z,6.87
2019-04-30T00:38:05.030Z,6.91
2019-04-30T00:40:35.179Z,6.95
2019-04-30T00:43:07.544Z,7.00
2019-04-30T00:45:35.385Z,7.03
2019-04-30T00:48:05.871Z,7.03
2019-04-30T00:50:37.245Z,7.02
2019-04-30T00:53:05.876Z,7.04
2019-04-30T00:55:40.291Z,6.95
2019-04-30T00:58:05.953Z,6.89
2019-04-30T01:00:37.178Z,6.89
2019-04-30T01:03:13.252Z,6.91
2019-04-30T01:05:46.503Z,6.91
2019-04-30T01:08:12.073Z,6.92
2019-04-30T01:10:40.710Z,6.89
2019-04-30T01:13:11.966Z,6.88
2019-04-30T01:15:39.508Z,6.89
2019-04-30T01:18:09.327Z,6.92
2019-04-30T01:20:38.669Z,6.86
2019-04-30T01:23:11.309Z,6.80
2019-04-30T01:25:38.894Z,6.76
2019-04-30T01:28:08.402Z,6.80
2019-04-30T01:30:39.374Z,6.84
2019-04-30T01:33:09.157Z,6.89
2019-04-30T01:35:38.210Z,6.92
2019-04-30T01:38:11.232Z,6.94
2019-04-30T01:40:42.750Z,6.91
2019-04-30T01:43:11.878Z,6.88
2019-04-30T01:45:40.350Z,6.90
2019-04-30T01:48:12.105Z,6.92
2019-04-30T01:50:42.020Z,6.95
2019-04-30T01:53:13.093Z,6.94
2019-04-30T01:55:41.581Z,6.93
2019-04-30T01:58:11.721Z,6.94
2019-04-30T02:00:41.919Z,6.92
2019-04-30T02:03:11.221Z,6.90
2019-04-30T02:05:39.857Z,6.91
2019-04-30T02:08:08.537Z,6.89
2019-04-30T02:10:36.978Z,6.88
2019-04-30T02:13:05.681Z,6.84
2019-04-30T02:15:34.130Z,6.83
2019-04-30T02:18:02.698Z,6.80
2019-04-30T02:20:31.209Z,6.80
2019-04-30T02:22:59.738Z,6.77
2019-04-30T02:25:29.557Z,6.69
2019-04-30T02:27:59.180Z,6.65
2019-04-30T02:30:30.527Z,6.61
2019-04-30T02:33:00.543Z,6.60
2019-04-30T02:35:35.921Z,6.62
2019-04-30T02:38:21.339Z,6.62
2019-04-30T02:40:50.830Z,6.58
2019-04-30T02:43:20.722Z,6.57
2019-04-30T02:45:51.842Z,6.58
2019-04-30T02:48:23.110Z,6.60
2019-04-30T02:50:53.602Z,6.65
2019-04-30T02:53:50.992Z,6.72
2019-04-30T02:56:20.452Z,6.73
2019-04-30T02:58:50.623Z,6.77
2019-04-30T03:01:20.214Z,6.79
2019-04-30T03:03:50.130Z,6.80
2019-04-30T03:06:20.495Z,6.82
2019-04-30T03:08:51.163Z,6.82
2019-04-30T03:11:20.658Z,6.78
2019-04-30T03:13:49.756Z,6.67
2019-04-30T03:16:20.698Z,6.62
2019-04-30T03:18:51.204Z,6.66
2019-04-30T03:21:40.348Z,6.69
2019-04-30T03:24:10.468Z,6.69
2019-04-30T03:26:40.013Z,6.68
2019-04-30T03:29:11.233Z,6.68
2019-04-30T03:31:44.103Z,6.69
2019-04-30T03:34:16.520Z,6.64
2019-04-30T03:36:40.350Z,6.60
2019-04-30T03:39:10.923Z,6.59
2019-04-30T03:41:41.270Z,6.55
2019-04-30T03:44:18.556Z,6.55
2019-04-30T03:46:40.460Z,6.54
2019-04-30T03:49:10.592Z,6.54
2019-04-30T03:51:40.309Z,6.53
2019-04-30T03:54:10.079Z,6.58
2019-04-30T03:56:39.814Z,6.62
2019-04-30T03:59:10.646Z,6.66
2019-04-30T04:01:40.496Z,6.67
2019-04-30T04:04:16.758Z,6.66
2019-04-30T04:07:02.806Z,6.62
2019-04-30T04:09:32.968Z,6.60
2019-04-30T04:12:20.455Z,6.59
2019-04-30T04:14:50.903Z,6.58
2019-04-30T04:17:20.392Z,6.61
2019-04-30T04:19:50.385Z,6.62
2019-04-30T04:22:20.861Z,6.57
2019-04-30T04:24:50.577Z,6.58
2019-04-30T04:27:19.774Z,6.60
2019-04-30T04:29:50.989Z,6.60
2019-04-30T04:32:20.695Z,6.66
2019-04-30T04:34:50.533Z,6.73
2019-04-30T04:37:20.307Z,6.84
2019-04-30T04:39:50.050Z,6.90
2019-04-30T04:42:19.828Z,6.84
2019-04-30T04:44:50.287Z,6.80
2019-04-30T04:47:19.909Z,6.71
2019-04-30T04:49:53.169Z,6.65
2019-04-30T04:52:21.615Z,6.76
2019-04-30T04:54:50.695Z,6.83
2019-04-30T04:57:22.573Z,6.87
2019-04-30T04:59:50.247Z,6.90
2019-04-30T05:02:36.482Z,6.93
2019-04-30T05:05:06.795Z,6.96
2019-04-30T05:07:35.279Z,6.96
2019-04-30T05:10:05.284Z,6.96
2019-04-30T05:12:33.772Z,6.95
2019-04-30T05:15:02.248Z,6.94
2019-04-30T05:17:32.065Z,6.94
2019-04-30T05:20:00.782Z,6.96
2019-04-30T05:22:29.519Z,7.00
2019-04-30T05:25:00.215Z,7.03
2019-04-30T05:27:30.356Z,7.08
2019-04-30T05:29:59.598Z,7.15
2019-04-30T05:32:29.335Z,7.20
2019-04-30T05:34:58.715Z,7.25
2019-04-30T05:37:28.439Z,7.27
2019-04-30T05:39:58.484Z,7.25
2019-04-30T05:42:28.544Z,7.21
2019-04-30T05:44:59.176Z,7.19
2019-04-30T05:47:29.139Z,7.20
2019-04-30T05:49:58.490Z,7.25
2019-04-30T05:52:29.064Z,7.29
2019-04-30T05:54:58.492Z,7.34
2019-04-30T05:57:29.414Z,7.32
2019-04-30T05:59:58.599Z,7.35
2019-04-30T06:02:30.718Z,7.41
2019-04-30T06:04:58.774Z,7.39
2019-04-30T06:07:29.812Z,7.39
2019-04-30T06:09:59.713Z,7.38
2019-04-30T06:12:35.790Z,7.41
2019-04-30T06:15:08.985Z,7.43
2019-04-30T06:17:39.307Z,7.47
2019-04-30T06:20:17.730Z,7.48
2019-04-30T06:22:38.666Z,7.54
2019-04-30T06:25:10.545Z,7.58
2019-04-30T06:27:38.703Z,7.62
2019-04-30T06:30:09.686Z,7.67
2019-04-30T06:32:39.496Z,7.72
2019-04-30T06:35:09.231Z,7.67
2019-04-30T06:37:39.120Z,7.66
2019-04-30T06:40:11.691Z,7.62
2019-04-30T06:42:39.658Z,7.68
2019-04-30T06:45:09.293Z,7.77
2019-04-30T06:47:38.915Z,7.85
2019-04-30T06:50:09.691Z,7.96
2019-04-30T06:52:38.998Z,7.99
2019-04-30T06:55:09.440Z,8.04
2019-04-30T06:57:38.371Z,8.11
2019-04-30T07:00:09.822Z,8.14
2019-04-30T07:02:39.310Z,8.06
2019-04-30T07:05:10.215Z,7.99
2019-04-30T07:07:41.752Z,8.04
2019-04-30T07:10:17.182Z,8.05
2019-04-30T07:12:43.886Z,8.12
2019-04-30T07:15:13.768Z,8.21
2019-04-30T07:17:42.292Z,8.33
2019-04-30T07:20:11.231Z,8.41
2019-04-30T07:22:49.004Z,8.50
2019-04-30T07:25:11.740Z,8.56
2019-04-30T07:27:40.313Z,8.64
2019-04-30T07:30:10.011Z,8.77
2019-04-30T07:32:38.873Z,8.92
2019-04-30T07:35:09.574Z,9.07
2019-04-30T07:37:39.157Z,9.21
2019-04-30T07:40:09.121Z,9.26
2019-04-30T07:42:44.122Z,9.38
2019-04-30T07:45:09.694Z,9.52
2019-04-30T07:47:39.540Z,9.59
2019-04-30T07:50:10.717Z,9.66
2019-04-30T07:52:58.066Z,9.76
2019-04-30T07:55:09.774Z,9.91
2019-04-30T07:57:40.436Z,10.06
2019-04-30T08:00:09.844Z,10.16
2019-04-30T08:02:43.518Z,10.23
2019-04-30T08:05:23.981Z,10.19
2019-04-30T08:07:52.579Z,10.14
2019-04-30T08:10:21.171Z,10.12
2019-04-30T08:12:50.809Z,10.06
2019-04-30T08:15:19.967Z,10.02
2019-04-30T08:18:02.292Z,10.05
2019-04-30T08:20:19.633Z,10.03
2019-04-30T08:22:49.364Z,10.12
2019-04-30T08:25:19.859Z,10.42
2019-04-30T08:27:49.283Z,10.89
2019-04-30T08:30:26.258Z,11.25
2019-04-30T08:32:49.986Z,11.34
2019-04-30T08:35:19.709Z,11.22
2019-04-30T08:37:49.729Z,11.14
2019-04-30T08:40:19.082Z,11.12
2019-04-30T08:42:49.590Z,11.06
2019-04-30T08:45:19.672Z,11.01
2019-04-30T08:47:49.290Z,10.93
2019-04-30T08:50:19.995Z,10.88
2019-04-30T08:52:49.841Z,10.94
2019-04-30T08:55:19.704Z,11.09
2019-04-30T08:57:50.022Z,11.30
2019-04-30T09:00:19.602Z,11.60
2019-04-30T09:02:49.200Z,12.15
2019-04-30T09:05:22.492Z,12.54
2019-04-30T09:07:51.060Z,12.74
2019-04-30T09:10:19.614Z,12.78
2019-04-30T09:12:51.680Z,12.65
2019-04-30T09:15:21.111Z,12.59
2019-04-30T09:18:00.834Z,12.41
2019-04-30T09:20:19.844Z,12.39
2019-04-30T09:22:49.646Z,12.22
2019-04-30T09:25:20.188Z,12.18
2019-04-30T09:27:56.055Z,12.20
2019-04-30T09:33:19.546Z,12.40
2019-04-30T09:35:49.511Z,12.51
2019-04-30T09:38:19.528Z,12.64
2019-04-30T09:40:50.715Z,12.68
2019-04-30T09:43:19.432Z,12.64
2019-04-30T09:45:49.745Z,12.46
2019-04-30T09:48:18.970Z,12.28
2019-04-30T09:50:49.743Z,12.30
2019-04-30T09:53:19.632Z,12.46
2019-04-30T09:55:49.628Z,12.56
2019-04-30T09:58:21.051Z,12.58
2019-04-30T10:00:50.372Z,12.57
2019-04-30T10:03:20.177Z,12.61
2019-04-30T10:05:49.438Z,12.85
2019-04-30T10:08:20.774Z,13.13
2019-04-30T10:10:53.519Z,13.25
2019-04-30T10:13:22.034Z,13.35
2019-04-30T10:15:52.148Z,13.49
2019-04-30T10:18:20.659Z,13.69
2019-04-30T10:20:49.209Z,13.81
2019-04-30T10:23:19.329Z,14.00
2019-04-30T10:25:48.029Z,13.86
2019-04-30T10:28:16.695Z,13.81
2019-04-30T10:30:45.177Z,13.70
2019-04-30T10:33:13.766Z,13.61
2019-04-30T10:35:42.414Z,13.50
2019-04-30T10:38:10.922Z,13.46
2019-04-30T10:40:39.564Z,13.24
2019-04-30T10:43:08.970Z,13.06
2019-04-30T10:45:38.826Z,13.07
2019-04-30T10:48:07.574Z,12.92
2019-04-30T10:50:36.083Z,12.91
2019-04-30T10:53:04.811Z,12.85
2019-04-30T10:55:33.316Z,13.03
2019-04-30T10:58:01.824Z,13.20
2019-04-30T11:00:38.944Z,13.25
2019-04-30T11:03:19.086Z,13.39
2019-04-30T11:05:41.054Z,13.52
2019-04-30T11:08:09.168Z,13.91
2019-04-30T11:10:39.782Z,14.07
2019-04-30T11:13:08.184Z,13.97
2019-04-30T11:15:36.970Z,14.09
2019-04-30T11:18:05.713Z,14.06
2019-04-30T11:20:34.532Z,13.95
2019-04-30T11:23:13.879Z,13.89
2019-04-30T11:25:34.411Z,13.97
2019-04-30T11:28:04.101Z,13.95
2019-04-30T11:30:33.372Z,13.98
2019-04-30T11:33:02.106Z,13.97
2019-04-30T11:35:30.734Z,13.84
2019-04-30T11:37:59.270Z,13.87
2019-04-30T11:40:37.087Z,13.88
2019-04-30T11:43:01.003Z,13.82
2019-04-30T11:45:53.269Z,14.00
2019-04-30T11:48:21.838Z,14.20
2019-04-30T11:50:50.310Z,14.22
2019-04-30T11:53:25.426Z,14.26
2019-04-30T11:55:49.307Z,14.43
2019-04-30T11:58:21.806Z,14.54
2019-04-30T12:00:49.515Z,14.78
2019-04-30T12:03:19.210Z,14.87
2019-04-30T12:05:49.009Z,15.04
2019-04-30T12:08:22.063Z,15.11
2019-04-30T12:11:01.519Z,14.95
2019-04-30T12:16:37.111Z,15.63
2019-04-30T12:19:09.166Z,15.72
2019-04-30T12:21:37.723Z,15.86
2019-04-30T12:24:30.270Z,16.14
2019-04-30T12:26:58.451Z,16.27
2019-04-30T12:29:29.027Z,16.60
2019-04-30T12:31:57.168Z,16.79
2019-04-30T12:34:25.685Z,16.86
2019-04-30T12:37:13.547Z,16.75
2019-04-30T12:39:42.079Z,16.69
2019-04-30T12:42:11.041Z,16.74
2019-04-30T12:44:47.193Z,16.78
2019-04-30T12:47:15.691Z,16.87
2019-04-30T12:49:50.003Z,16.96
2019-04-30T12:55:22.503Z,16.81
2019-04-30T12:57:58.903Z,16.78
2019-04-30T13:00:22.841Z,16.64
2019-04-30T13:02:51.453Z,16.80
2019-04-30T13:05:20.098Z,16.95
2019-04-30T13:07:50.036Z,16.99
2019-04-30T13:10:19.873Z,17.15
2019-04-30T13:12:49.235Z,16.81
2019-04-30T13:15:18.391Z,16.89
2019-04-30T13:17:49.952Z,16.92
2019-04-30T13:20:20.875Z,16.79
2019-04-30T13:22:48.848Z,16.50
2019-04-30T13:25:29.540Z,16.07
2019-04-30T13:27:54.764Z,15.92
2019-04-30T13:30:25.189Z,15.33
2019-04-30T13:32:55.480Z,15.13
2019-04-30T13:35:23.987Z,15.28
2019-04-30T13:37:59.795Z,15.45
2019-04-30T13:40:35.667Z,15.75
2019-04-30T13:43:06.205Z,16.08
2019-04-30T13:45:34.752Z,16.15
2019-04-30T13:48:03.445Z,16.34
2019-04-30T13:50:31.955Z,16.60
2019-04-30T13:53:00.567Z,16.48
2019-04-30T13:55:33.236Z,16.19
2019-04-30T13:57:59.254Z,15.91
2019-04-30T14:00:29.810Z,15.84
2019-04-30T14:03:16.044Z,15.88
2019-04-30T14:05:44.756Z,16.02
2019-04-30T14:08:20.834Z,16.12
2019-04-30T14:10:49.435Z,15.95
2019-04-30T14:13:18.074Z,16.09
2019-04-30T14:15:47.814Z,16.16
2019-04-30T14:18:27.906Z,16.25
2019-04-30T14:20:46.908Z,16.19
2019-04-30T14:23:18.593Z,15.93
2019-04-30T14:25:56.733Z,15.82
2019-04-30T14:28:25.093Z,15.59
2019-04-30T14:30:53.782Z,15.23
2019-04-30T14:33:26.326Z,15.18
2019-04-30T14:35:52.617Z,15.10
2019-04-30T14:38:21.205Z,14.97
2019-04-30T14:40:50.784Z,15.11
2019-04-30T14:43:22.194Z,15.13
2019-04-30T14:45:56.266Z,15.08
2019-04-30T14:48:27.301Z,14.89
2019-04-30T14:50:56.213Z,14.75
2019-04-30T14:53:30.526Z,14.66
2019-04-30T14:56:17.017Z,14.52
2019-04-30T14:58:47.214Z,14.51
2019-04-30T15:01:33.604Z,14.54
2019-04-30T15:04:02.376Z,14.60
2019-04-30T15:06:30.901Z,14.61
2019-04-30T15:08:59.497Z,14.60
2019-04-30T15:11:28.842Z,14.62
2019-04-30T15:13:59.121Z,14.53
2019-04-30T15:16:27.908Z,14.51
2019-04-30T15:18:56.389Z,14.46
2019-04-30T15:21:24.946Z,14.45
2019-04-30T15:23:58.714Z,14.44
2019-04-30T15:26:25.561Z,14.36
2019-04-30T15:28:54.058Z,14.31
2019-04-30T15:31:22.665Z,14.13
2019-04-30T15:34:02.579Z,14.03
2019-04-30T15:36:25.778Z,14.03
2019-04-30T15:38:55.903Z,13.93
2019-04-30T15:41:24.670Z,14.01
2019-04-30T15:43:53.182Z,14.09
2019-04-30T15:46:21.738Z,14.17
2019-04-30T15:48:50.288Z,14.20
2019-04-30T15:51:18.862Z,14.11
2019-04-30T15:53:48.903Z,14.05
2019-04-30T15:56:19.182Z,13.85
2019-04-30T15:59:05.504Z,13.83
2019-04-30T16:01:34.076Z,13.66
2019-04-30T16:04:02.827Z,13.55
2019-04-30T16:06:31.323Z,13.61
2019-04-30T16:09:01.510Z,13.67
2019-04-30T16:11:31.654Z,13.75
2019-04-30T16:14:11.033Z,13.72
2019-04-30T16:16:41.191Z,13.64
2019-04-30T16:19:09.737Z,13.54
2019-04-30T16:21:38.241Z,13.44
2019-04-30T16:24:08.632Z,13.47
2019-04-30T16:26:48.616Z,13.52
2019-04-30T16:29:09.818Z,13.57
2019-04-30T16:31:39.158Z,13.46
2019-04-30T16:34:07.943Z,13.47
2019-04-30T16:36:36.441Z,13.48
2019-04-30T16:39:08.732Z,13.39
2019-04-30T16:41:40.535Z,13.35
2019-04-30T16:44:09.197Z,13.33
2019-04-30T16:46:39.449Z,13.37
2019-04-30T16:49:09.994Z,13.43
2019-04-30T16:51:38.681Z,13.37
2019-04-30T16:54:08.659Z,13.34
2019-04-30T16:56:38.708Z,13.30
2019-04-30T16:59:09.031Z,13.24
2019-04-30T17:01:37.716Z,13.14
2019-04-30T17:04:13.862Z,13.10
2019-04-30T17:06:43.963Z,13.14
2019-04-30T17:09:14.136Z,13.20
2019-04-30T17:11:48.553Z,13.24
2019-04-30T17:14:17.321Z,13.20
2019-04-30T17:16:45.793Z,13.24
2019-04-30T17:19:14.320Z,13.23
2019-04-30T17:21:42.805Z,13.15
2019-04-30T17:24:13.941Z,13.10
2019-04-30T17:26:41.515Z,13.08
2019-04-30T17:29:09.969Z,13.04
2019-04-30T17:31:38.468Z,12.94
2019-04-30T17:34:07.063Z,12.95
2019-04-30T17:36:35.525Z,12.91
2019-04-30T17:39:05.538Z,12.83
2019-04-30T17:41:34.043Z,12.76
2019-04-30T17:44:02.522Z,12.77
2019-04-30T17:46:31.005Z,12.66
2019-04-30T17:48:59.514Z,12.66
2019-04-30T17:51:27.984Z,12.67
2019-04-30T17:54:12.679Z,12.70
2019-04-30T17:56:42.286Z,12.71
2019-04-30T17:59:11.011Z,12.67
2019-04-30T18:01:41.307Z,12.63
2019-04-30T18:04:09.882Z,12.63
2019-04-30T18:06:38.602Z,12.59
2019-04-30T18:09:10.723Z,12.50
2019-04-30T18:11:39.604Z,12.44
2019-04-30T18:14:08.831Z,12.40
2019-04-30T18:16:38.650Z,12.42
2019-04-30T18:19:12.087Z,12.48
2019-04-30T18:21:51.149Z,12.45
2019-04-30T18:24:33.352Z,12.39
2019-04-30T18:27:03.571Z,12.33
2019-04-30T18:29:32.053Z,12.30
2019-04-30T18:32:00.686Z,12.27
2019-04-30T18:34:29.285Z,12.23
2019-04-30T18:36:59.338Z,12.13
2019-04-30T18:39:28.924Z,12.10
2019-04-30T18:41:57.527Z,12.15
2019-04-30T18:44:25.999Z,12.17
2019-04-30T18:46:54.498Z,12.18
2019-04-30T18:49:22.972Z,12.20
2019-04-30T18:51:51.492Z,12.20
2019-04-30T18:54:20.933Z,12.20
2019-04-30T18:56:49.595Z,12.19
2019-04-30T18:59:19.642Z,12.17
2019-04-30T19:01:48.304Z,12.11
2019-04-30T19:04:18.585Z,12.09
2019-04-30T19:06:47.077Z,12.02
2019-04-30T19:09:22.924Z,12.00
2019-04-30T19:11:55.743Z,11.94
2019-04-30T19:14:26.006Z,11.96
2019-04-30T19:17:12.174Z,11.95
2019-04-30T19:19:53.974Z,11.97
2019-04-30T19:22:22.571Z,11.94
2019-04-30T19:24:56.185Z,11.86
2019-04-30T19:27:21.329Z,11.74
2019-04-30T19:29:51.731Z,11.70
2019-04-30T19:32:20.244Z,11.73
2019-04-30T19:34:49.035Z,11.79
2019-04-30T19:37:19.585Z,11.81
2019-04-30T19:39:48.726Z,11.78
2019-04-30T19:42:18.777Z,11.77
2019-04-30T19:44:58.898Z,11.77
2019-04-30T19:47:19.133Z,11.75
2019-04-30T19:49:48.855Z,11.71
2019-04-30T19:52:19.191Z,11.68
2019-04-30T19:54:48.791Z,11.63
2019-04-30T19:57:19.025Z,11.62
2019-04-30T19:59:49.181Z,11.63
2019-04-30T20:02:19.092Z,11.62
2019-04-30T20:04:47.991Z,11.57
2019-04-30T20:07:16.569Z,11.58
2019-04-30T20:09:57.253Z,11.54
2019-04-30T20:12:15.264Z,11.49
2019-04-30T20:14:43.767Z,11.45
2019-04-30T20:17:13.211Z,11.37
2019-04-30T20:19:41.693Z,11.27
2019-04-30T20:22:10.427Z,11.19
2019-04-30T20:24:39.408Z,11.08
2019-04-30T20:27:10.196Z,11.03
2019-04-30T20:29:38.147Z,11.05
2019-04-30T20:32:08.558Z,11.06
2019-04-30T20:34:39.105Z,11.09
2019-04-30T20:37:08.614Z,11.13
2019-04-30T20:39:44.734Z,11.14
2019-04-30T20:42:13.243Z,11.14
2019-04-30T20:44:41.695Z,11.11
2019-04-30T20:47:10.176Z,11.11
2019-04-30T20:49:39.128Z,11.12
2019-04-30T20:52:07.603Z,11.07
2019-04-30T20:54:36.142Z,11.04
2019-04-30T20:57:04.634Z,11.05
2019-04-30T20:59:33.095Z,11.10
2019-04-30T21:02:01.638Z,11.11
2019-04-30T21:04:30.141Z,11.15
2019-04-30T21:06:59.464Z,11.18
2019-04-30T21:09:28.071Z,11.17
2019-04-30T21:11:58.711Z,11.05
2019-04-30T21:14:26.805Z,11.03
2019-04-30T21:16:55.296Z,11.04
2019-04-30T21:19:23.800Z,11.00
2019-04-30T21:21:52.281Z,11.00
2019-04-30T21:24:20.825Z,10.93
2019-04-30T21:26:49.365Z,10.73
2019-04-30T21:29:18.877Z,10.53
2019-04-30T21:32:00.597Z,10.39
2019-04-30T21:34:30.813Z,10.32
2019-04-30T21:36:59.678Z,10.22
2019-04-30T21:39:28.336Z,10.07
2019-04-30T21:41:56.807Z,10.00
2019-04-30T21:44:25.342Z,10.00
2019-04-30T21:46:53.844Z,10.00
2019-04-30T21:49:22.313Z,9.97
2019-04-30T21:51:50.865Z,9.99
2019-04-30T21:54:19.337Z,10.05
2019-04-30T21:56:47.817Z,10.06
2019-04-30T21:59:24.262Z,10.04
2019-04-30T22:01:46.561Z,10.00
2019-04-30T22:04:15.528Z,9.95
2019-04-30T22:06:44.089Z,9.98
2019-04-30T22:09:13.627Z,9.98
2019-04-30T22:11:42.302Z,9.97
2019-04-30T22:14:10.930Z,9.98
2019-04-30T22:16:39.885Z,9.94
2019-04-30T22:19:08.392Z,9.81
2019-04-30T22:21:36.904Z,9.79
2019-04-30T22:24:05.523Z,9.76
2019-04-30T22:26:34.026Z,9.77
2019-04-30T22:29:02.510Z,9.79
2019-04-30T22:31:30.986Z,9.77
2019-04-30T22:33:59.457Z,9.74
2019-04-30T22:36:41.346Z,9.66
2019-04-30T22:39:12.079Z,9.61
2019-04-30T22:41:40.589Z,9.61
2019-04-30T22:44:09.087Z,9.62
2019-04-30T22:46:39.391Z,9.62
2019-04-30T22:49:07.912Z,9.61
2019-04-30T22:51:36.404Z,9.57
2019-04-30T22:54:04.935Z,9.55
2019-04-30T22:56:33.419Z,9.56
2019-04-30T22:59:01.896Z,9.49
2019-04-30T23:01:44.059Z,9.44
2019-04-30T23:04:30.488Z,9.45
2019-04-30T23:06:59.049Z,9.34
2019-04-30T23:09:27.538Z,9.25
2019-04-30T23:11:56.097Z,9.18
2019-04-30T23:14:24.658Z,9.09
2019-04-30T23:16:53.191Z,9.10
2019-04-30T23:19:21.660Z,9.17
2019-04-30T23:21:50.144Z,9.05
2019-04-30T23:24:18.631Z,8.99
2019-04-30T23:26:47.105Z,8.93
2019-04-30T23:29:15.587Z,8.86
2019-04-30T23:31:44.056Z,8.88
2019-04-30T23:34:17.986Z,8.89
2019-04-30T23:36:42.725Z,8.86
2019-04-30T23:39:11.280Z,8.87
2019-04-30T23:41:39.751Z,8.79
2019-04-30T23:44:08.255Z,8.69
2019-04-30T23:46:36.711Z,8.61
2019-04-30T23:49:05.276Z,8.62
2019-04-30T23:51:33.731Z,8.66
2019-04-30T23:54:02.206Z,8.64
2019-04-30T23:56:30.697Z,8.57
2019-04-30T23:58:59.158Z,8.56
